sensor_id;sensor_type;location;lat;lon;timestamp;P1;durP1;ratioP1;P2;durP2;ratioP2
21148;SDS011;10732;51.472;6.466;2023-04-24T00:00:54;2.65;;;2.20;;
21148;SDS011;10732;51.472;6.466;2023-04-24T00:03:21;3.05;;;2.20;;
21148;SDS011;10732;51.472;6.466;2023-04-24T00:05:47;5.88;;;2.55;;
21148;SDS011;10732;51.472;6.466;2023-04-24T00:08:13;4.22;;;2.35;;
21148;SDS011;10732;51.472;6.466;2023-04-24T00:10:39;2.60;;;2.28;;
21148;SDS011;10732;51.472;6.466;2023-04-24T00:13:05;3.72;;;2.75;;
21148;SDS011;10732;51.472;6.466;2023-04-24T00:15:30;4.40;;;2.67;;
21148;SDS011;10732;51.472;6.466;2023-04-24T00:17:56;4.95;;;3.03;;
21148;SDS011;10732;51.472;6.466;2023-04-24T00:20:22;4.18;;;3.15;;
21148;SDS011;10732;51.472;6.466;2023-04-24T00:22:47;4.30;;;3.33;;
21148;SDS011;10732;51.472;6.466;2023-04-24T00:25:13;3.58;;;3.20;;
21148;SDS011;10732;51.472;6.466;2023-04-24T00:27:38;4.82;;;3.70;;
21148;SDS011;10732;51.472;6.466;2023-04-24T00:30:04;9.55;;;3.58;;
21148;SDS011;10732;51.472;6.466;2023-04-24T00:32:31;5.25;;;3.90;;
21148;SDS011;10732;51.472;6.466;2023-04-24T00:34:56;4.13;;;3.42;;
21148;SDS011;10732;51.472;6.466;2023-04-24T00:37:22;5.57;;;3.80;;
21148;SDS011;10732;51.472;6.466;2023-04-24T00:39:47;4.32;;;3.30;;
21148;SDS011;10732;51.472;6.466;2023-04-24T00:42:13;6.13;;;3.95;;
21148;SDS011;10732;51.472;6.466;2023-04-24T00:44:38;6.00;;;3.78;;
21148;SDS011;10732;51.472;6.466;2023-04-24T00:47:04;5.45;;;4.00;;
21148;SDS011;10732;51.472;6.466;2023-04-24T00:49:29;4.80;;;4.30;;
21148;SDS011;10732;51.472;6.466;2023-04-24T00:51:55;7.97;;;5.22;;
21148;SDS011;10732;51.472;6.466;2023-04-24T00:54:21;8.38;;;4.90;;
21148;SDS011;10732;51.472;6.466;2023-04-24T00:56:47;5.82;;;4.80;;
21148;SDS011;10732;51.472;6.466;2023-04-24T00:59:13;8.13;;;5.22;;
21148;SDS011;10732;51.472;6.466;2023-04-24T01:01:41;7.60;;;5.45;;
21148;SDS011;10732;51.472;6.466;2023-04-24T01:04:08;8.65;;;5.35;;
21148;SDS011;10732;51.472;6.466;2023-04-24T01:06:36;9.50;;;5.93;;
21148;SDS011;10732;51.472;6.466;2023-04-24T01:09:04;8.40;;;6.13;;
21148;SDS011;10732;51.472;6.466;2023-04-24T01:11:30;8.43;;;6.05;;
21148;SDS011;10732;51.472;6.466;2023-04-24T01:13:56;9.50;;;6.35;;
21148;SDS011;10732;51.472;6.466;2023-04-24T01:16:22;8.65;;;6.20;;
21148;SDS011;10732;51.472;6.466;2023-04-24T01:18:48;7.78;;;6.32;;
21148;SDS011;10732;51.472;6.466;2023-04-24T01:21:14;10.43;;;6.70;;
21148;SDS011;10732;51.472;6.466;2023-04-24T01:23:41;9.32;;;6.43;;
21148;SDS011;10732;51.472;6.466;2023-04-24T01:26:10;9.20;;;6.88;;
21148;SDS011;10732;51.472;6.466;2023-04-24T01:28:37;10.43;;;7.28;;
21148;SDS011;10732;51.472;6.466;2023-04-24T01:31:02;8.27;;;6.47;;
21148;SDS011;10732;51.472;6.466;2023-04-24T01:33:28;11.18;;;7.10;;
21148;SDS011;10732;51.472;6.466;2023-04-24T01:35:54;8.60;;;6.78;;
21148;SDS011;10732;51.472;6.466;2023-04-24T01:38:20;10.98;;;7.43;;
21148;SDS011;10732;51.472;6.466;2023-04-24T01:40:46;11.73;;;7.22;;
21148;SDS011;10732;51.472;6.466;2023-04-24T01:43:12;12.48;;;8.30;;
21148;SDS011;10732;51.472;6.466;2023-04-24T01:45:37;11.13;;;7.47;;
21148;SDS011;10732;51.472;6.466;2023-04-24T01:48:03;11.07;;;7.60;;
21148;SDS011;10732;51.472;6.466;2023-04-24T01:50:30;9.93;;;7.00;;
21148;SDS011;10732;51.472;6.466;2023-04-24T01:52:55;9.68;;;7.38;;
21148;SDS011;10732;51.472;6.466;2023-04-24T01:55:21;11.32;;;7.65;;
21148;SDS011;10732;51.472;6.466;2023-04-24T01:57:47;11.20;;;7.65;;
21148;SDS011;10732;51.472;6.466;2023-04-24T02:00:12;9.40;;;7.72;;
21148;SDS011;10732;51.472;6.466;2023-04-24T02:02:41;11.45;;;8.10;;
21148;SDS011;10732;51.472;6.466;2023-04-24T02:05:07;12.95;;;8.65;;
21148;SDS011;10732;51.472;6.466;2023-04-24T02:07:33;12.70;;;8.48;;
21148;SDS011;10732;51.472;6.466;2023-04-24T02:09:59;10.50;;;8.07;;
21148;SDS011;10732;51.472;6.466;2023-04-24T02:12:24;15.50;;;9.63;;
21148;SDS011;10732;51.472;6.466;2023-04-24T02:14:50;17.23;;;9.45;;
21148;SDS011;10732;51.472;6.466;2023-04-24T02:17:15;14.73;;;9.88;;
21148;SDS011;10732;51.472;6.466;2023-04-24T02:19:41;13.07;;;10.15;;
21148;SDS011;10732;51.472;6.466;2023-04-24T02:22:07;13.07;;;9.90;;
21148;SDS011;10732;51.472;6.466;2023-04-24T02:24:32;12.43;;;10.10;;
21148;SDS011;10732;51.472;6.466;2023-04-24T02:26:58;16.52;;;10.57;;
21148;SDS011;10732;51.472;6.466;2023-04-24T02:29:23;15.98;;;10.73;;
21148;SDS011;10732;51.472;6.466;2023-04-24T02:31:49;17.33;;;10.90;;
21148;SDS011;10732;51.472;6.466;2023-04-24T02:34:14;17.77;;;11.27;;
21148;SDS011;10732;51.472;6.466;2023-04-24T02:36:41;20.48;;;11.45;;
21148;SDS011;10732;51.472;6.466;2023-04-24T02:39:06;16.38;;;11.60;;
21148;SDS011;10732;51.472;6.466;2023-04-24T02:41:32;19.08;;;11.50;;
21148;SDS011;10732;51.472;6.466;2023-04-24T02:43:58;21.40;;;12.20;;
21148;SDS011;10732;51.472;6.466;2023-04-24T02:46:23;17.67;;;11.38;;
21148;SDS011;10732;51.472;6.466;2023-04-24T02:48:49;19.73;;;11.27;;
21148;SDS011;10732;51.472;6.466;2023-04-24T02:51:15;19.98;;;12.55;;
21148;SDS011;10732;51.472;6.466;2023-04-24T02:53:40;18.52;;;12.23;;
21148;SDS011;10732;51.472;6.466;2023-04-24T02:56:06;16.90;;;12.35;;
21148;SDS011;10732;51.472;6.466;2023-04-24T02:58:32;19.45;;;12.55;;
21148;SDS011;10732;51.472;6.466;2023-04-24T03:00:57;20.65;;;12.18;;
21148;SDS011;10732;51.472;6.466;2023-04-24T03:03:23;16.70;;;12.45;;
21148;SDS011;10732;51.472;6.466;2023-04-24T03:05:49;19.05;;;13.43;;
21148;SDS011;10732;51.472;6.466;2023-04-24T03:08:15;17.10;;;12.30;;
21148;SDS011;10732;51.472;6.466;2023-04-24T03:10:40;20.92;;;12.65;;
21148;SDS011;10732;51.472;6.466;2023-04-24T03:13:06;17.58;;;12.90;;
21148;SDS011;10732;51.472;6.466;2023-04-24T03:15:32;20.17;;;12.80;;
21148;SDS011;10732;51.472;6.466;2023-04-24T03:17:57;19.10;;;12.73;;
21148;SDS011;10732;51.472;6.466;2023-04-24T03:20:23;14.98;;;12.48;;
21148;SDS011;10732;51.472;6.466;2023-04-24T03:22:49;21.88;;;13.18;;
21148;SDS011;10732;51.472;6.466;2023-04-24T03:25:14;17.98;;;13.32;;
21148;SDS011;10732;51.472;6.466;2023-04-24T03:27:40;20.25;;;12.57;;
21148;SDS011;10732;51.472;6.466;2023-04-24T03:30:06;19.83;;;13.25;;
21148;SDS011;10732;51.472;6.466;2023-04-24T03:32:32;18.70;;;13.30;;
21148;SDS011;10732;51.472;6.466;2023-04-24T03:34:58;21.75;;;13.73;;
21148;SDS011;10732;51.472;6.466;2023-04-24T03:37:23;22.30;;;12.73;;
21148;SDS011;10732;51.472;6.466;2023-04-24T03:39:49;17.92;;;12.27;;
21148;SDS011;10732;51.472;6.466;2023-04-24T03:42:15;17.02;;;12.43;;
21148;SDS011;10732;51.472;6.466;2023-04-24T03:44:40;16.27;;;12.60;;
21148;SDS011;10732;51.472;6.466;2023-04-24T03:47:06;19.85;;;13.70;;
21148;SDS011;10732;51.472;6.466;2023-04-24T03:49:31;20.08;;;13.02;;
21148;SDS011;10732;51.472;6.466;2023-04-24T03:51:57;18.73;;;12.57;;
21148;SDS011;10732;51.472;6.466;2023-04-24T03:54:22;16.38;;;11.85;;
21148;SDS011;10732;51.472;6.466;2023-04-24T03:56:48;15.10;;;12.23;;
21148;SDS011;10732;51.472;6.466;2023-04-24T03:59:13;21.33;;;12.63;;
21148;SDS011;10732;51.472;6.466;2023-04-24T04:01:39;19.17;;;11.60;;
21148;SDS011;10732;51.472;6.466;2023-04-24T04:04:05;17.80;;;12.25;;
21148;SDS011;10732;51.472;6.466;2023-04-24T04:06:31;18.27;;;11.95;;
21148;SDS011;10732;51.472;6.466;2023-04-24T04:08:57;20.05;;;12.13;;
21148;SDS011;10732;51.472;6.466;2023-04-24T04:11:23;17.83;;;12.40;;
21148;SDS011;10732;51.472;6.466;2023-04-24T04:13:49;17.10;;;11.27;;
21148;SDS011;10732;51.472;6.466;2023-04-24T04:16:15;20.40;;;11.73;;
21148;SDS011;10732;51.472;6.466;2023-04-24T04:18:43;15.00;;;11.70;;
21148;SDS011;10732;51.472;6.466;2023-04-24T04:21:10;15.88;;;11.18;;
21148;SDS011;10732;51.472;6.466;2023-04-24T04:23:35;13.63;;;10.77;;
21148;SDS011;10732;51.472;6.466;2023-04-24T04:26:01;14.38;;;10.48;;
21148;SDS011;10732;51.472;6.466;2023-04-24T04:28:28;14.23;;;10.77;;
21148;SDS011;10732;51.472;6.466;2023-04-24T04:30:55;18.08;;;11.07;;
21148;SDS011;10732;51.472;6.466;2023-04-24T04:33:22;17.77;;;11.23;;
21148;SDS011;10732;51.472;6.466;2023-04-24T04:35:48;17.02;;;10.63;;
21148;SDS011;10732;51.472;6.466;2023-04-24T04:38:15;18.17;;;10.55;;
21148;SDS011;10732;51.472;6.466;2023-04-24T04:40:41;13.70;;;9.50;;
21148;SDS011;10732;51.472;6.466;2023-04-24T04:43:08;13.48;;;9.80;;
21148;SDS011;10732;51.472;6.466;2023-04-24T04:45:33;13.30;;;9.43;;
21148;SDS011;10732;51.472;6.466;2023-04-24T04:47:59;12.20;;;9.90;;
21148;SDS011;10732;51.472;6.466;2023-04-24T04:50:26;18.05;;;9.85;;
21148;SDS011;10732;51.472;6.466;2023-04-24T04:52:52;11.63;;;8.82;;
21148;SDS011;10732;51.472;6.466;2023-04-24T04:55:18;10.50;;;7.70;;
21148;SDS011;10732;51.472;6.466;2023-04-24T04:57:45;15.45;;;8.70;;
21148;SDS011;10732;51.472;6.466;2023-04-24T05:00:11;13.73;;;8.45;;
21148;SDS011;10732;51.472;6.466;2023-04-24T05:02:37;14.98;;;8.68;;
21148;SDS011;10732;51.472;6.466;2023-04-24T05:05:03;13.63;;;8.10;;
21148;SDS011;10732;51.472;6.466;2023-04-24T05:07:28;9.77;;;8.20;;
21148;SDS011;10732;51.472;6.466;2023-04-24T05:09:54;10.50;;;8.05;;
21148;SDS011;10732;51.472;6.466;2023-04-24T05:12:20;10.30;;;7.80;;
21148;SDS011;10732;51.472;6.466;2023-04-24T05:14:45;11.43;;;8.38;;
21148;SDS011;10732;51.472;6.466;2023-04-24T05:17:11;14.85;;;8.55;;
21148;SDS011;10732;51.472;6.466;2023-04-24T05:19:36;12.82;;;7.97;;
21148;SDS011;10732;51.472;6.466;2023-04-24T05:22:03;9.15;;;8.05;;
21148;SDS011;10732;51.472;6.466;2023-04-24T05:24:31;10.95;;;8.65;;
21148;SDS011;10732;51.472;6.466;2023-04-24T05:27:00;11.88;;;7.95;;
21148;SDS011;10732;51.472;6.466;2023-04-24T05:29:27;11.27;;;8.80;;
21148;SDS011;10732;51.472;6.466;2023-04-24T05:31:53;11.13;;;8.27;;
21148;SDS011;10732;51.472;6.466;2023-04-24T05:34:18;13.57;;;9.13;;
21148;SDS011;10732;51.472;6.466;2023-04-24T05:36:44;13.55;;;9.23;;
21148;SDS011;10732;51.472;6.466;2023-04-24T05:39:09;10.73;;;8.98;;
21148;SDS011;10732;51.472;6.466;2023-04-24T05:41:35;11.52;;;9.98;;
21148;SDS011;10732;51.472;6.466;2023-04-24T05:44:00;15.20;;;10.45;;
21148;SDS011;10732;51.472;6.466;2023-04-24T05:46:26;12.63;;;9.88;;
21148;SDS011;10732;51.472;6.466;2023-04-24T05:48:51;13.82;;;11.00;;
21148;SDS011;10732;51.472;6.466;2023-04-24T05:51:17;13.13;;;10.20;;
21148;SDS011;10732;51.472;6.466;2023-04-24T05:53:42;14.38;;;10.40;;
21148;SDS011;10732;51.472;6.466;2023-04-24T05:56:08;14.32;;;10.98;;
21148;SDS011;10732;51.472;6.466;2023-04-24T05:58:34;14.95;;;9.75;;
21148;SDS011;10732;51.472;6.466;2023-04-24T06:00:59;12.18;;;9.13;;
21148;SDS011;10732;51.472;6.466;2023-04-24T06:03:26;14.73;;;9.65;;
21148;SDS011;10732;51.472;6.466;2023-04-24T06:05:52;13.50;;;9.43;;
21148;SDS011;10732;51.472;6.466;2023-04-24T06:08:18;13.25;;;9.50;;
21148;SDS011;10732;51.472;6.466;2023-04-24T06:10:43;11.77;;;9.13;;
21148;SDS011;10732;51.472;6.466;2023-04-24T06:13:10;18.13;;;10.40;;
21148;SDS011;10732;51.472;6.466;2023-04-24T06:15:36;12.07;;;8.68;;
21148;SDS011;10732;51.472;6.466;2023-04-24T06:18:01;11.52;;;8.38;;
21148;SDS011;10732;51.472;6.466;2023-04-24T06:20:27;11.15;;;8.68;;
21148;SDS011;10732;51.472;6.466;2023-04-24T06:22:53;10.18;;;8.48;;
21148;SDS011;10732;51.472;6.466;2023-04-24T06:25:18;9.98;;;8.07;;
21148;SDS011;10732;51.472;6.466;2023-04-24T06:27:44;10.10;;;7.97;;
21148;SDS011;10732;51.472;6.466;2023-04-24T06:30:10;10.05;;;7.35;;
21148;SDS011;10732;51.472;6.466;2023-04-24T06:32:36;11.15;;;7.63;;
21148;SDS011;10732;51.472;6.466;2023-04-24T06:35:01;8.50;;;6.97;;
21148;SDS011;10732;51.472;6.466;2023-04-24T06:37:27;9.45;;;7.57;;
21148;SDS011;10732;51.472;6.466;2023-04-24T06:39:52;10.10;;;6.60;;
21148;SDS011;10732;51.472;6.466;2023-04-24T06:42:18;7.57;;;5.97;;
21148;SDS011;10732;51.472;6.466;2023-04-24T06:44:46;6.72;;;6.03;;
21148;SDS011;10732;51.472;6.466;2023-04-24T06:47:12;8.15;;;5.63;;
21148;SDS011;10732;51.472;6.466;2023-04-24T06:49:40;6.20;;;4.75;;
21148;SDS011;10732;51.472;6.466;2023-04-24T06:52:06;4.85;;;3.72;;
21148;SDS011;10732;51.472;6.466;2023-04-24T06:54:32;5.03;;;3.35;;
21148;SDS011;10732;51.472;6.466;2023-04-24T06:57:01;5.38;;;3.20;;
21148;SDS011;10732;51.472;6.466;2023-04-24T06:59:28;3.20;;;2.90;;
21148;SDS011;10732;51.472;6.466;2023-04-24T07:01:54;2.45;;;2.20;;
21148;SDS011;10732;51.472;6.466;2023-04-24T07:04:20;4.32;;;1.85;;
21148;SDS011;10732;51.472;6.466;2023-04-24T07:06:46;3.35;;;2.10;;
21148;SDS011;10732;51.472;6.466;2023-04-24T07:09:13;2.53;;;2.05;;
21148;SDS011;10732;51.472;6.466;2023-04-24T07:11:39;4.00;;;2.10;;
21148;SDS011;10732;51.472;6.466;2023-04-24T07:14:05;3.03;;;2.00;;
21148;SDS011;10732;51.472;6.466;2023-04-24T07:16:31;2.35;;;1.58;;
21148;SDS011;10732;51.472;6.466;2023-04-24T07:18:57;3.88;;;1.83;;
21148;SDS011;10732;51.472;6.466;2023-04-24T07:21:23;2.70;;;1.90;;
21148;SDS011;10732;51.472;6.466;2023-04-24T07:23:48;2.60;;;1.98;;
21148;SDS011;10732;51.472;6.466;2023-04-24T07:26:14;2.55;;;2.03;;
21148;SDS011;10732;51.472;6.466;2023-04-24T07:28:40;2.60;;;2.10;;
21148;SDS011;10732;51.472;6.466;2023-04-24T07:31:05;2.90;;;1.88;;
21148;SDS011;10732;51.472;6.466;2023-04-24T07:33:33;2.60;;;1.88;;
21148;SDS011;10732;51.472;6.466;2023-04-24T07:36:01;2.58;;;1.90;;
21148;SDS011;10732;51.472;6.466;2023-04-24T07:38:26;2.05;;;1.70;;
21148;SDS011;10732;51.472;6.466;2023-04-24T07:40:54;3.30;;;1.50;;
21148;SDS011;10732;51.472;6.466;2023-04-24T07:43:20;1.92;;;1.40;;
21148;SDS011;10732;51.472;6.466;2023-04-24T07:45:47;2.10;;;1.40;;
21148;SDS011;10732;51.472;6.466;2023-04-24T07:48:12;1.88;;;1.27;;
21148;SDS011;10732;51.472;6.466;2023-04-24T07:50:41;3.40;;;1.55;;
21148;SDS011;10732;51.472;6.466;2023-04-24T07:53:07;1.92;;;1.58;;
21148;SDS011;10732;51.472;6.466;2023-04-24T07:55:32;2.30;;;1.60;;
21148;SDS011;10732;51.472;6.466;2023-04-24T07:57:58;1.60;;;1.40;;
21148;SDS011;10732;51.472;6.466;2023-04-24T08:00:23;1.90;;;1.17;;
21148;SDS011;10732;51.472;6.466;2023-04-24T08:02:49;2.83;;;1.40;;
21148;SDS011;10732;51.472;6.466;2023-04-24T08:05:14;2.35;;;1.27;;
21148;SDS011;10732;51.472;6.466;2023-04-24T08:07:40;1.83;;;1.30;;
21148;SDS011;10732;51.472;6.466;2023-04-24T08:10:07;1.67;;;1.35;;
21148;SDS011;10732;51.472;6.466;2023-04-24T08:12:35;1.45;;;1.35;;
21148;SDS011;10732;51.472;6.466;2023-04-24T08:15:01;3.08;;;1.35;;
21148;SDS011;10732;51.472;6.466;2023-04-24T08:17:26;1.27;;;1.10;;
21148;SDS011;10732;51.472;6.466;2023-04-24T08:19:52;1.20;;;1.10;;
21148;SDS011;10732;51.472;6.466;2023-04-24T08:22:24;1.42;;;1.00;;
21148;SDS011;10732;51.472;6.466;2023-04-24T08:24:49;1.58;;;0.93;;
21148;SDS011;10732;51.472;6.466;2023-04-24T08:27:15;1.08;;;0.90;;
21148;SDS011;10732;51.472;6.466;2023-04-24T08:29:40;1.48;;;1.00;;
21148;SDS011;10732;51.472;6.466;2023-04-24T08:32:06;3.13;;;0.93;;
21148;SDS011;10732;51.472;6.466;2023-04-24T08:34:32;1.88;;;0.90;;
21148;SDS011;10732;51.472;6.466;2023-04-24T08:36:57;2.13;;;1.30;;
21148;SDS011;10732;51.472;6.466;2023-04-24T08:39:23;4.55;;;3.15;;
21148;SDS011;10732;51.472;6.466;2023-04-24T08:41:48;6.53;;;5.70;;
21148;SDS011;10732;51.472;6.466;2023-04-24T08:44:17;11.15;;;7.00;;
21148;SDS011;10732;51.472;6.466;2023-04-24T08:46:44;9.85;;;7.93;;
21148;SDS011;10732;51.472;6.466;2023-04-24T08:49:13;9.85;;;7.72;;
21148;SDS011;10732;51.472;6.466;2023-04-24T08:51:41;9.05;;;7.85;;
21148;SDS011;10732;51.472;6.466;2023-04-24T08:54:07;9.82;;;7.38;;
21148;SDS011;10732;51.472;6.466;2023-04-24T08:56:33;8.48;;;7.03;;
21148;SDS011;10732;51.472;6.466;2023-04-24T08:59:02;8.82;;;7.10;;
21148;SDS011;10732;51.472;6.466;2023-04-24T09:01:29;11.73;;;7.32;;
21148;SDS011;10732;51.472;6.466;2023-04-24T09:03:58;11.63;;;8.10;;
21148;SDS011;10732;51.472;6.466;2023-04-24T09:06:27;10.50;;;6.95;;
21148;SDS011;10732;51.472;6.466;2023-04-24T09:08:53;8.65;;;7.03;;
21148;SDS011;10732;51.472;6.466;2023-04-24T09:11:20;9.77;;;7.50;;
21148;SDS011;10732;51.472;6.466;2023-04-24T09:13:49;10.27;;;7.88;;
21148;SDS011;10732;51.472;6.466;2023-04-24T09:16:15;8.85;;;7.25;;
21148;SDS011;10732;51.472;6.466;2023-04-24T09:18:41;8.05;;;6.45;;
21148;SDS011;10732;51.472;6.466;2023-04-24T09:21:07;12.13;;;7.43;;
21148;SDS011;10732;51.472;6.466;2023-04-24T09:23:34;9.63;;;7.32;;
21148;SDS011;10732;51.472;6.466;2023-04-24T09:26:00;13.00;;;7.85;;
21148;SDS011;10732;51.472;6.466;2023-04-24T09:28:32;13.00;;;8.38;;
21148;SDS011;10732;51.472;6.466;2023-04-24T09:33:38;11.13;;;8.10;;
21148;SDS011;10732;51.472;6.466;2023-04-24T09:36:04;13.02;;;8.40;;
21148;SDS011;10732;51.472;6.466;2023-04-24T09:38:32;16.83;;;8.15;;
21148;SDS011;10732;51.472;6.466;2023-04-24T09:40:59;13.18;;;7.22;;
21148;SDS011;10732;51.472;6.466;2023-04-24T09:43:27;10.68;;;6.78;;
21148;SDS011;10732;51.472;6.466;2023-04-24T09:45:55;11.45;;;5.82;;
21148;SDS011;10732;51.472;6.466;2023-04-24T09:48:35;11.05;;;4.85;;
21148;SDS011;10732;51.472;6.466;2023-04-24T09:51:02;9.23;;;5.03;;
21148;SDS011;10732;51.472;6.466;2023-04-24T09:53:32;9.90;;;4.60;;
21148;SDS011;10732;51.472;6.466;2023-04-24T09:56:07;10.48;;;4.88;;
21148;SDS011;10732;51.472;6.466;2023-04-24T09:58:35;12.90;;;5.25;;
21148;SDS011;10732;51.472;6.466;2023-04-24T10:01:01;12.50;;;4.90;;
21148;SDS011;10732;51.472;6.466;2023-04-24T10:03:29;9.73;;;5.18;;
21148;SDS011;10732;51.472;6.466;2023-04-24T10:05:59;10.25;;;4.50;;
21148;SDS011;10732;51.472;6.466;2023-04-24T10:08:25;9.95;;;4.72;;
21148;SDS011;10732;51.472;6.466;2023-04-24T10:10:51;10.60;;;4.82;;
21148;SDS011;10732;51.472;6.466;2023-04-24T10:13:17;13.80;;;4.70;;
21148;SDS011;10732;51.472;6.466;2023-04-24T10:15:43;13.00;;;5.07;;
21148;SDS011;10732;51.472;6.466;2023-04-24T10:18:09;15.18;;;4.53;;
21148;SDS011;10732;51.472;6.466;2023-04-24T10:20:36;13.80;;;4.45;;
21148;SDS011;10732;51.472;6.466;2023-04-24T10:23:03;11.05;;;3.63;;
21148;SDS011;10732;51.472;6.466;2023-04-24T10:25:32;15.68;;;4.22;;
21148;SDS011;10732;51.472;6.466;2023-04-24T10:27:59;7.75;;;4.10;;
21148;SDS011;10732;51.472;6.466;2023-04-24T10:30:26;13.07;;;4.53;;
21148;SDS011;10732;51.472;6.466;2023-04-24T10:32:54;11.50;;;3.92;;
21148;SDS011;10732;51.472;6.466;2023-04-24T10:35:22;12.93;;;4.53;;
21148;SDS011;10732;51.472;6.466;2023-04-24T10:37:57;10.85;;;3.97;;
21148;SDS011;10732;51.472;6.466;2023-04-24T10:40:32;14.98;;;4.63;;
21148;SDS011;10732;51.472;6.466;2023-04-24T10:43:02;11.95;;;4.07;;
21148;SDS011;10732;51.472;6.466;2023-04-24T10:45:30;9.15;;;3.72;;
21148;SDS011;10732;51.472;6.466;2023-04-24T10:47:57;8.77;;;3.80;;
21148;SDS011;10732;51.472;6.466;2023-04-24T10:50:26;11.07;;;4.63;;
21148;SDS011;10732;51.472;6.466;2023-04-24T10:53:04;11.68;;;4.85;;
21148;SDS011;10732;51.472;6.466;2023-04-24T10:55:47;14.40;;;4.45;;
21148;SDS011;10732;51.472;6.466;2023-04-24T10:58:21;11.05;;;4.88;;
21148;SDS011;10732;51.472;6.466;2023-04-24T11:00:57;12.77;;;4.38;;
21148;SDS011;10732;51.472;6.466;2023-04-24T11:03:33;9.55;;;3.70;;
21148;SDS011;10732;51.472;6.466;2023-04-24T11:06:09;12.65;;;4.03;;
21148;SDS011;10732;51.472;6.466;2023-04-24T11:08:39;9.27;;;3.45;;
21148;SDS011;10732;51.472;6.466;2023-04-24T11:11:16;12.55;;;3.30;;
21148;SDS011;10732;51.472;6.466;2023-04-24T11:16:21;9.77;;;3.15;;
21148;SDS011;10732;51.472;6.466;2023-04-24T11:19:00;9.90;;;3.50;;
21148;SDS011;10732;51.472;6.466;2023-04-24T11:21:38;8.75;;;3.15;;
21148;SDS011;10732;51.472;6.466;2023-04-24T11:26:53;11.75;;;3.47;;
21148;SDS011;10732;51.472;6.466;2023-04-24T11:29:45;7.70;;;3.70;;
21148;SDS011;10732;51.472;6.466;2023-04-24T11:32:28;6.75;;;3.22;;
21148;SDS011;10732;51.472;6.466;2023-04-24T11:34:56;7.80;;;3.13;;
21148;SDS011;10732;51.472;6.466;2023-04-24T11:37:24;10.77;;;3.97;;
21148;SDS011;10732;51.472;6.466;2023-04-24T11:39:52;10.93;;;4.07;;
21148;SDS011;10732;51.472;6.466;2023-04-24T11:42:18;8.18;;;3.42;;
21148;SDS011;10732;51.472;6.466;2023-04-24T11:44:46;8.70;;;3.40;;
21148;SDS011;10732;51.472;6.466;2023-04-24T11:47:12;8.15;;;3.28;;
21148;SDS011;10732;51.472;6.466;2023-04-24T11:49:38;4.85;;;2.88;;
21148;SDS011;10732;51.472;6.466;2023-04-24T11:52:04;8.18;;;3.28;;
21148;SDS011;10732;51.472;6.466;2023-04-24T11:54:31;8.63;;;3.38;;
21148;SDS011;10732;51.472;6.466;2023-04-24T11:56:56;7.50;;;3.10;;
21148;SDS011;10732;51.472;6.466;2023-04-24T11:59:22;4.60;;;2.83;;
21148;SDS011;10732;51.472;6.466;2023-04-24T12:01:48;3.70;;;2.20;;
21148;SDS011;10732;51.472;6.466;2023-04-24T12:04:15;4.65;;;2.38;;
21148;SDS011;10732;51.472;6.466;2023-04-24T12:09:27;4.65;;;1.85;;
21148;SDS011;10732;51.472;6.466;2023-04-24T12:11:56;5.25;;;1.98;;
21148;SDS011;10732;51.472;6.466;2023-04-24T12:14:22;5.65;;;1.90;;
21148;SDS011;10732;51.472;6.466;2023-04-24T12:16:48;6.15;;;2.08;;
21148;SDS011;10732;51.472;6.466;2023-04-24T12:19:21;5.13;;;1.73;;
21148;SDS011;10732;51.472;6.466;2023-04-24T12:22:02;4.53;;;1.95;;
21148;SDS011;10732;51.472;6.466;2023-04-24T12:24:30;3.40;;;1.60;;
21148;SDS011;10732;51.472;6.466;2023-04-24T12:26:56;3.00;;;2.00;;
21148;SDS011;10732;51.472;6.466;2023-04-24T12:29:23;4.07;;;2.25;;
21148;SDS011;10732;51.472;6.466;2023-04-24T12:31:49;3.25;;;2.10;;
21148;SDS011;10732;51.472;6.466;2023-04-24T12:34:17;2.53;;;1.70;;
21148;SDS011;10732;51.472;6.466;2023-04-24T12:36:45;4.68;;;1.63;;
21148;SDS011;10732;51.472;6.466;2023-04-24T12:39:17;3.58;;;1.30;;
21148;SDS011;10732;51.472;6.466;2023-04-24T12:41:56;4.68;;;1.48;;
21148;SDS011;10732;51.472;6.466;2023-04-24T12:44:29;3.42;;;1.20;;
21148;SDS011;10732;51.472;6.466;2023-04-24T12:46:59;4.55;;;1.10;;
21148;SDS011;10732;51.472;6.466;2023-04-24T12:49:26;5.13;;;1.40;;
21148;SDS011;10732;51.472;6.466;2023-04-24T12:51:52;4.40;;;1.50;;
21148;SDS011;10732;51.472;6.466;2023-04-24T12:54:18;5.05;;;1.30;;
21148;SDS011;10732;51.472;6.466;2023-04-24T12:56:44;3.47;;;1.10;;
21148;SDS011;10732;51.472;6.466;2023-04-24T12:59:10;5.13;;;1.35;;
21148;SDS011;10732;51.472;6.466;2023-04-24T13:01:35;3.67;;;1.50;;
21148;SDS011;10732;51.472;6.466;2023-04-24T13:04:01;3.88;;;1.40;;
21148;SDS011;10732;51.472;6.466;2023-04-24T13:06:27;3.70;;;1.40;;
21148;SDS011;10732;51.472;6.466;2023-04-24T13:08:52;5.05;;;1.40;;
21148;SDS011;10732;51.472;6.466;2023-04-24T13:11:19;3.55;;;1.42;;
21148;SDS011;10732;51.472;6.466;2023-04-24T13:13:46;4.47;;;1.60;;
21148;SDS011;10732;51.472;6.466;2023-04-24T13:16:12;4.07;;;1.23;;
21148;SDS011;10732;51.472;6.466;2023-04-24T13:18:38;8.18;;;1.55;;
21148;SDS011;10732;51.472;6.466;2023-04-24T13:21:03;4.40;;;1.67;;
21148;SDS011;10732;51.472;6.466;2023-04-24T13:23:29;4.30;;;1.60;;
21148;SDS011;10732;51.472;6.466;2023-04-24T13:25:54;3.67;;;1.35;;
21148;SDS011;10732;51.472;6.466;2023-04-24T13:28:23;3.70;;;1.60;;
21148;SDS011;10732;51.472;6.466;2023-04-24T13:30:49;4.38;;;1.33;;
21148;SDS011;10732;51.472;6.466;2023-04-24T13:33:15;4.07;;;1.60;;
21148;SDS011;10732;51.472;6.466;2023-04-24T13:35:41;3.80;;;1.48;;
21148;SDS011;10732;51.472;6.466;2023-04-24T13:38:07;4.72;;;1.30;;
21148;SDS011;10732;51.472;6.466;2023-04-24T13:40:33;2.60;;;1.42;;
21148;SDS011;10732;51.472;6.466;2023-04-24T13:42:58;3.58;;;1.58;;
21148;SDS011;10732;51.472;6.466;2023-04-24T13:45:24;6.05;;;1.60;;
21148;SDS011;10732;51.472;6.466;2023-04-24T13:47:49;2.47;;;1.45;;
21148;SDS011;10732;51.472;6.466;2023-04-24T13:50:15;5.20;;;1.63;;
21148;SDS011;10732;51.472;6.466;2023-04-24T13:52:41;4.10;;;1.67;;
21148;SDS011;10732;51.472;6.466;2023-04-24T13:55:06;4.65;;;1.30;;
21148;SDS011;10732;51.472;6.466;2023-04-24T13:57:32;3.30;;;1.40;;
21148;SDS011;10732;51.472;6.466;2023-04-24T13:59:58;2.22;;;1.02;;
21148;SDS011;10732;51.472;6.466;2023-04-24T14:02:28;2.38;;;1.30;;
21148;SDS011;10732;51.472;6.466;2023-04-24T14:04:54;3.60;;;1.20;;
21148;SDS011;10732;51.472;6.466;2023-04-24T14:07:20;2.63;;;1.73;;
21148;SDS011;10732;51.472;6.466;2023-04-24T14:09:45;4.70;;;2.47;;
21148;SDS011;10732;51.472;6.466;2023-04-24T14:12:11;5.15;;;1.58;;
21148;SDS011;10732;51.472;6.466;2023-04-24T14:14:37;4.50;;;1.92;;
21148;SDS011;10732;51.472;6.466;2023-04-24T14:17:03;2.97;;;1.80;;
21148;SDS011;10732;51.472;6.466;2023-04-24T14:19:28;5.78;;;1.65;;
21148;SDS011;10732;51.472;6.466;2023-04-24T14:21:54;3.65;;;1.80;;
21148;SDS011;10732;51.472;6.466;2023-04-24T14:24:21;4.78;;;2.15;;
21148;SDS011;10732;51.472;6.466;2023-04-24T14:26:47;2.85;;;1.70;;
21148;SDS011;10732;51.472;6.466;2023-04-24T14:29:12;4.43;;;1.70;;
21148;SDS011;10732;51.472;6.466;2023-04-24T14:31:38;3.70;;;1.83;;
21148;SDS011;10732;51.472;6.466;2023-04-24T14:34:03;3.63;;;1.52;;
21148;SDS011;10732;51.472;6.466;2023-04-24T14:36:29;4.28;;;1.52;;
21148;SDS011;10732;51.472;6.466;2023-04-24T14:38:55;4.75;;;1.60;;
21148;SDS011;10732;51.472;6.466;2023-04-24T14:41:20;2.85;;;1.60;;
21148;SDS011;10732;51.472;6.466;2023-04-24T14:43:46;4.60;;;1.50;;
21148;SDS011;10732;51.472;6.466;2023-04-24T14:46:12;4.88;;;1.40;;